Time;durP1;ratioP1;P1;durP2;ratioP2;P2;SDS_P1;SDS_P2;PMS_P1;PMS_P2;Temp;Humidity;BMP_temperature;BMP_pressure;BME280_temperature;BME280_humidity;BME280_pressure;Samples;Min_cycle;Max_cycle;Signal;HPM_P1;HPM_P2
2023/03/04 00:00:08;;;;;;;13.95;2.13;;;;;;;10.00;54.72;102864.13;5018552;28;20088;-40
2023/03/04 00:02:34;;;;;;;16.48;2.58;;;;;;;10.19;53.99;102861.56;5021306;28;20033;-42
2023/03/04 00:04:59;;;;;;;14.55;2.35;;;;;;;10.13;54.47;102863.84;5020283;28;20037;-41
2023/03/04 00:07:24;;;;;;;13.55;2.15;;;;;;;10.18;54.70;102861.50;5024027;28;20026;-41
2023/03/04 00:09:50;;;;;;;14.82;2.25;;;;;;;10.32;53.81;102865.63;5020591;28;20043;-40
2023/03/04 00:12:16;;;;;;;16.40;2.20;;;;;;;10.16;54.11;102867.53;5023683;28;20080;-40
2023/03/04 00:14:41;;;;;;;15.85;2.20;;;;;;;10.14;54.61;102863.91;5020835;28;20045;-46
2023/03/04 00:17:07;;;;;;;18.45;2.22;;;;;;;9.95;55.20;102862.97;5026136;28;20025;-40
2023/03/04 00:19:33;;;;;;;18.38;2.47;;;;;;;9.82;55.62;102858.88;5022350;28;20528;-40
2023/03/04 00:21:59;;;;;;;13.45;2.20;;;;;;;10.14;54.50;102865.63;5021118;28;20124;-40
2023/03/04 00:24:24;;;;;;;14.30;2.40;;;;;;;10.16;54.57;102859.72;5025491;28;20124;-41
2023/03/04 00:26:50;;;;;;;16.80;2.33;;;;;;;10.28;54.26;102864.59;5021917;28;20044;-40
2023/03/04 00:29:15;;;;;;;18.45;2.30;;;;;;;10.46;53.65;102861.94;5024457;28;20022;-41
2023/03/04 00:31:40;;;;;;;19.20;2.65;;;;;;;10.27;54.58;102868.03;5022022;28;20057;-44
2023/03/04 00:34:05;;;;;;;10.85;2.00;;;;;;;10.41;54.05;102863.44;5027592;28;20030;-40
2023/03/04 00:36:31;;;;;;;11.07;2.17;;;;;;;10.41;54.05;102872.16;5027480;28;20050;-41
2023/03/04 00:38:56;;;;;;;14.75;3.25;;;;;;;10.39;53.90;102860.78;5029523;28;20473;-38
2023/03/04 00:41:21;;;;;;;13.82;1.90;;;;;;;10.46;54.05;102860.22;5033138;28;20045;-42
2023/03/04 00:43:47;;;;;;;17.90;2.17;;;;;;;10.34;54.23;102864.88;5028899;28;20097;-42
2023/03/04 00:46:12;;;;;;;16.80;2.28;;;;;;;10.42;54.45;102862.63;5028540;28;20071;-41
2023/03/04 00:48:38;;;;;;;11.48;2.17;;;;;;;10.30;54.60;102865.56;5024467;28;20029;-42
2023/03/04 00:51:03;;;;;;;11.73;1.83;;;;;;;10.20;54.80;102870.28;5020454;28;20124;-38
2023/03/04 00:53:29;;;;;;;16.38;2.40;;;;;;;9.10;56.90;102867.47;5024363;28;20025;-42
2023/03/04 00:55:54;;;;;;;12.00;1.90;;;;;;;9.66;55.14;102857.28;5020770;28;20076;-40
2023/03/04 00:58:20;;;;;;;19.45;2.25;;;;;;;9.82;54.37;102864.09;5024168;28;20029;-41
2023/03/04 01:00:45;;;;;;;11.40;1.58;;;;;;;9.94;53.57;102864.69;5020060;28;20442;-40
2023/03/04 01:03:10;;;;;;;13.65;1.90;;;;;;;9.82;53.60;102856.28;5024324;28;20030;-40
2023/03/04 01:05:35;;;;;;;9.30;1.90;;;;;;;9.78;53.92;102854.38;5024261;28;20064;-42
2023/03/04 01:08:01;;;;;;;8.80;1.63;;;;;;;9.74;53.99;102852.44;5020463;28;20171;-40
2023/03/04 01:10:27;;;;;;;8.82;1.40;;;;;;;9.95;53.57;102869.09;5023885;28;20399;-39
2023/03/04 01:12:52;;;;;;;10.23;1.85;;;;;;;9.91;54.11;102858.44;5019787;28;20460;-44
2023/03/04 01:15:17;;;;;;;12.82;1.60;;;;;;;9.74;54.34;102855.94;5023939;28;20033;-40
2023/03/04 01:17:43;;;;;;;9.38;1.75;;;;;;;9.78;53.56;102854.38;5020355;28;20036;-47
2023/03/04 01:20:09;;;;;;;14.68;2.28;;;;;;;10.02;53.35;102855.53;5023348;28;20045;-40
2023/03/04 01:22:35;;;;;;;11.25;1.85;;;;;;;10.25;52.95;102854.00;5023325;28;20577;-44
2023/03/04 01:25:01;;;;;;;11.32;1.92;;;;;;;10.27;53.25;102854.09;5020342;28;20030;-40
2023/03/04 01:27:26;;;;;;;9.93;2.03;;;;;;;10.05;53.93;102849.59;5023914;28;20029;-41
2023/03/04 01:29:51;;;;;;;10.40;1.90;;;;;;;10.16;53.36;102841.47;5020089;28;20057;-43
2023/03/04 01:32:17;;;;;;;11.27;1.70;;;;;;;10.08;53.51;102834.97;5023111;28;20057;-44
2023/03/04 01:34:42;;;;;;;11.73;1.88;;;;;;;10.12;53.50;102834.28;5020282;28;20516;-43
2023/03/04 01:37:08;;;;;;;13.60;1.83;;;;;;;10.29;53.33;102832.50;5024695;28;20033;-43
2023/03/04 01:39:34;;;;;;;9.88;1.92;;;;;;;10.36;53.19;102836.28;5024730;28;20037;-40
2023/03/04 01:41:59;;;;;;;12.73;1.70;;;;;;;10.16;53.79;102833.66;5021793;28;20025;-41
2023/03/04 01:44:25;;;;;;;14.55;2.20;;;;;;;9.83;54.21;102829.41;5028652;28;20025;-41
2023/03/04 01:46:53;;;;;;;10.65;1.65;;;;;;;9.93;53.95;102829.06;5028746;28;20053;-41
2023/03/04 01:49:19;;;;;;;12.70;1.95;;;;;;;10.26;53.31;102828.84;5033414;28;20061;-41
2023/03/04 01:52:03;;;;;;;11.77;1.95;;;;;;;9.96;54.56;102828.28;5029244;28;20044;-41
2023/03/04 01:54:28;;;;;;;13.50;1.90;;;;;;;10.18;54.25;102819.81;5033328;28;20029;-45
2023/03/04 01:56:55;;;;;;;11.55;1.80;;;;;;;10.02;54.30;102812.94;5022689;28;20054;-41
2023/03/04 01:59:22;;;;;;;14.35;2.00;;;;;;;10.21;53.87;102812.09;5024835;28;20448;-41
2023/03/04 02:01:50;;;;;;;9.90;1.75;;;;;;;9.88;54.58;102812.28;5023910;28;20495;-41
2023/03/04 02:04:19;;;;;;;12.75;2.17;;;;;;;10.04;54.84;102808.69;5019465;28;20029;-46
2023/03/04 02:06:45;;;;;;;11.38;1.83;;;;;;;10.08;54.59;102806.31;5019118;28;20568;-42
2023/03/04 02:09:11;;;;;;;12.32;2.08;;;;;;;9.80;54.70;102799.75;5023039;28;20041;-41
2023/03/04 02:11:37;;;;;;;12.32;1.58;;;;;;;9.97;54.40;102799.72;5022730;28;20064;-40
2023/03/04 02:14:03;;;;;;;9.85;1.80;;;;;;;9.98;53.92;102793.69;5019177;28;20076;-40
2023/03/04 02:16:30;;;;;;;15.55;1.98;;;;;;;9.77;54.47;102790.06;5022921;28;20084;-40
2023/03/04 02:18:56;;;;;;;11.63;1.65;;;;;;;9.80;54.64;102784.13;5019707;28;20064;-46
2023/03/04 02:21:30;;;;;;;10.23;1.98;;;;;;;9.65;54.91;102784.28;5026796;28;20063;-44
2023/03/04 02:24:11;;;;;;;13.30;2.10;;;;;;;9.84;54.44;102788.63;5024235;28;20029;-43
2023/03/04 02:26:40;;;;;;;10.77;1.63;;;;;;;9.95;54.75;102782.19;5026091;28;20120;-42
2023/03/04 02:29:05;;;;;;;13.43;1.80;;;;;;;9.76;54.64;102783.94;5018810;28;20029;-37
2023/03/04 02:31:32;;;;;;;9.05;1.60;;;;;;;10.05;53.61;102785.31;5022272;28;20403;-41
2023/03/04 02:34:00;;;;;;;8.65;1.85;;;;;;;9.81;54.09;102779.00;5018982;28;20045;-39
2023/03/04 02:36:26;;;;;;;10.82;1.50;;;;;;;9.78;53.97;102774.50;5022474;28;20079;-39
2023/03/04 02:38:53;;;;;;;11.07;1.48;;;;;;;9.96;53.61;102773.56;5018827;28;20128;-42
2023/03/04 02:41:25;;;;;;;11.38;1.85;;;;;;;10.04;53.27;102769.63;5021910;28;20099;-41
2023/03/04 02:43:52;;;;;;;9.18;1.70;;;;;;;9.79;53.96;102770.19;5018054;28;20034;-40
2023/03/04 02:46:18;;;;;;;11.20;1.80;;;;;;;9.54;54.06;102765.53;5022475;28;20041;-41
2023/03/04 02:48:43;;;;;;;12.30;1.63;;;;;;;9.85;53.58;102761.78;5019432;28;20071;-47
2023/03/04 02:51:08;;;;;;;12.30;1.65;;;;;;;9.70;53.76;102768.03;5023529;28;20071;-39
2023/03/04 02:53:34;;;;;;;12.35;2.05;;;;;;;9.64;54.42;102762.53;5025171;28;20041;-43
2023/03/04 02:55:59;;;;;;;11.43;1.55;;;;;;;9.40;55.77;102757.88;5022169;28;20049;-42
2023/03/04 02:58:25;;;;;;;16.23;2.15;;;;;;;9.26;56.26;102762.44;5025710;28;20061;-40
2023/03/04 03:00:50;;;;;;;12.93;2.00;;;;;;;9.58;55.55;102761.34;5019828;28;20456;-40
2023/03/04 03:03:16;;;;;;;14.68;2.20;;;;;;;9.67;55.36;102757.50;5023151;28;20541;-45
2023/03/04 03:05:41;;;;;;;14.05;2.15;;;;;;;9.28;56.43;102758.19;5020309;28;20030;-40
2023/03/04 03:08:06;;;;;;;15.45;1.88;;;;;;;9.92;54.48;102758.63;5024401;28;20029;-43
2023/03/04 03:10:32;;;;;;;11.55;1.83;;;;;;;9.78;54.23;102760.59;5022520;28;20570;-42
2023/03/04 03:12:57;;;;;;;9.18;1.75;;;;;;;9.38;55.13;102756.94;5017849;28;20032;-40
2023/03/04 03:15:23;;;;;;;10.13;1.52;;;;;;;9.56;54.71;102756.09;5021677;28;20495;-40
2023/03/04 03:17:49;;;;;;;15.48;1.77;;;;;;;9.15;56.06;102758.44;5017968;28;20116;-39
2023/03/04 03:20:14;;;;;;;9.63;1.70;;;;;;;9.78;54.10;102760.59;5021015;28;20066;-42
2023/03/04 03:22:40;;;;;;;13.15;1.50;;;;;;;9.58;54.13;102764.84;5005712;28;20039;-40
2023/03/04 03:25:07;;;;;;;14.77;1.60;;;;;;;9.71;53.91;102762.00;5018583;28;20037;-40
2023/03/04 03:27:32;;;;;;;8.95;1.45;;;;;;;9.75;53.74;102763.97;5023487;28;20568;-43
2023/03/04 03:29:58;;;;;;;7.20;1.30;;;;;;;9.55;54.96;102761.22;5020715;28;20033;-41
2023/03/04 03:32:23;;;;;;;12.63;1.88;;;;;;;9.71;54.52;102755.91;5022873;28;20510;-40
2023/03/04 03:34:49;;;;;;;13.25;1.83;;;;;;;9.79;53.95;102751.97;5018647;28;20446;-44
2023/03/04 03:37:14;;;;;;;10.68;1.60;;;;;;;9.45;55.31;102754.72;5022385;28;20033;-41
2023/03/04 03:39:40;;;;;;;9.40;1.65;;;;;;;9.67;54.20;102754.88;5020803;28;20026;-51
2023/03/04 03:42:05;;;;;;;10.57;1.40;;;;;;;10.05;53.65;102755.78;5018873;28;20026;-41
2023/03/04 03:44:30;;;;;;;7.07;1.50;;;;;;;9.77;54.17;102757.09;5021464;28;20109;-44
2023/03/04 03:46:56;;;;;;;6.43;1.60;;;;;;;9.62;54.73;102758.09;5017961;28;20155;-41
2023/03/04 03:49:21;;;;;;;8.80;1.50;;;;;;;9.57;55.48;102760.50;5021493;28;20037;-40
2023/03/04 03:51:46;;;;;;;9.93;1.70;;;;;;;9.71;55.16;102758.50;5017851;28;20030;-40
2023/03/04 03:54:12;;;;;;;6.07;1.50;;;;;;;9.39;56.25;102761.31;5024434;28;20116;-43
2023/03/04 03:56:37;;;;;;;7.13;1.35;;;;;;;9.35;55.92;102761.16;5028857;28;20034;-43
2023/03/04 03:59:02;;;;;;;8.88;1.35;;;;;;;9.22;55.88;102758.78;5024994;28;20481;-43
2023/03/04 04:01:28;;;;;;;7.05;1.50;;;;;;;9.46;55.12;102755.56;5027987;28;20041;-41
2023/03/04 04:03:53;;;;;;;9.98;1.95;;;;;;;9.61;54.83;102761.53;5024729;28;20045;-39
2023/03/04 04:06:19;;;;;;;7.70;1.23;;;;;;;9.55;54.80;102758.63;5029046;28;20030;-41
2023/03/04 04:08:44;;;;;;;5.65;1.33;;;;;;;9.48;55.45;102766.97;5026348;28;20103;-40
2023/03/04 04:11:11;;;;;;;5.75;1.25;;;;;;;9.28;56.32;102768.59;5030266;28;20450;-40
2023/03/04 04:13:37;;;;;;;13.57;1.52;;;;;;;9.60;56.08;102763.22;5030110;28;20550;-40
2023/03/04 04:16:02;;;;;;;6.13;1.55;;;;;;;9.50;56.39;102761.03;5025855;28;20109;-40
2023/03/04 04:18:27;;;;;;;7.28;1.33;;;;;;;9.49;56.05;102761.84;5029552;28;20040;-40
2023/03/04 04:20:53;;;;;;;6.75;1.45;;;;;;;9.66;55.77;102762.63;5025286;28;20041;-41
2023/03/04 04:23:19;;;;;;;9.63;1.50;;;;;;;9.70;55.91;102764.53;5011792;28;20038;-40
2023/03/04 04:25:44;;;;;;;12.57;1.65;;;;;;;9.64;55.40;102759.94;5026228;28;20518;-41
2023/03/04 04:28:10;;;;;;;8.65;1.70;;;;;;;9.59;55.96;102763.16;5030806;28;20437;-45
2023/03/04 04:30:35;;;;;;;8.95;1.50;;;;;;;9.50;55.71;102758.41;5029384;28;20090;-40
2023/03/04 04:33:03;;;;;;;6.13;1.42;;;;;;;9.25;55.66;102753.75;5024234;28;20056;-40
2023/03/04 04:35:29;;;;;;;10.90;1.90;;;;;;;9.36;54.50;102762.97;5026029;28;20120;-42
2023/03/04 04:37:54;;;;;;;9.82;1.70;;;;;;;9.12;54.38;102758.25;5021851;28;20405;-43
2023/03/04 04:40:20;;;;;;;16.20;1.95;;;;;;;9.23;54.58;102752.75;5026428;28;20037;-39
2023/03/04 04:42:45;;;;;;;19.08;1.60;;;;;;;9.68;53.56;102758.38;5021343;28;20056;-44
2023/03/04 04:45:10;;;;;;;6.40;1.60;;;;;;;9.69;53.57;102762.78;5027213;28;20033;-43
2023/03/04 04:47:36;;;;;;;10.85;1.85;;;;;;;9.66;53.95;102755.72;5027454;28;20056;-39
2023/03/04 04:50:01;;;;;;;7.97;1.60;;;;;;;9.94;53.43;102755.25;5023501;28;20037;-42
2023/03/04 04:52:27;;;;;;;8.32;1.60;;;;;;;9.76;53.24;102765.72;5026492;28;20029;-39
2023/03/04 04:54:52;;;;;;;13.55;2.17;;;;;;;9.87;53.62;102760.13;5024533;28;20468;-40
2023/03/04 04:57:17;;;;;;;9.85;2.00;;;;;;;9.94;53.65;102759.59;5029381;28;20030;-42
2023/03/04 04:59:43;;;;;;;9.77;1.70;;;;;;;9.87;53.80;102757.53;5025882;28;20411;-41
2023/03/04 05:02:08;;;;;;;8.70;1.98;;;;;;;9.87;53.53;102749.72;5027253;28;20068;-40
2023/03/04 05:04:33;;;;;;;9.77;1.75;;;;;;;9.84;53.96;102763.47;5028207;28;20561;-42
2023/03/04 05:06:58;;;;;;;9.40;1.90;;;;;;;9.83;53.89;102766.91;5024715;28;20045;-41
2023/03/04 05:09:24;;;;;;;9.88;1.75;;;;;;;9.88;54.74;102762.78;5030851;28;20043;-42
2023/03/04 05:11:49;;;;;;;8.50;2.13;;;;;;;9.64;55.03;102759.94;5028688;28;20033;-40
2023/03/04 05:14:14;;;;;;;13.15;2.10;;;;;;;9.64;56.07;102765.16;5031726;28;20050;-40
2023/03/04 05:16:40;;;;;;;7.20;1.90;;;;;;;9.20;57.68;102759.53;5026974;28;20526;-49
2023/03/04 05:19:05;;;;;;;9.38;2.08;;;;;;;9.48;57.81;102764.34;5022132;28;20063;-40
2023/03/04 05:21:31;;;;;;;11.27;2.83;;;;;;;9.80;57.28;102763.28;5023534;28;20037;-40
2023/03/04 05:23:56;;;;;;;9.52;2.08;;;;;;;9.86;56.99;102760.94;5020480;28;20041;-44
2023/03/04 05:26:21;;;;;;;10.63;2.20;;;;;;;9.84;57.21;102763.47;5023605;28;20030;-40
2023/03/04 05:28:47;;;;;;;8.93;1.92;;;;;;;10.17;56.64;102764.19;5019920;28;20034;-41
2023/03/04 05:31:12;;;;;;;9.63;2.10;;;;;;;10.07;56.78;102761.91;5023200;28;20093;-41
2023/03/04 05:33:38;;;;;;;9.00;2.10;;;;;;;9.96;56.59;102768.38;5023793;28;20072;-41
2023/03/04 05:36:05;;;;;;;9.55;2.10;;;;;;;9.89;57.02;102761.06;5019756;28;20041;-41
2023/03/04 05:38:30;;;;;;;13.77;2.20;;;;;;;9.88;57.04;102757.56;5024096;28;20112;-41
2023/03/04 05:40:58;;;;;;;6.07;1.70;;;;;;;9.83;56.98;102769.50;5021207;28;20160;-40
2023/03/04 05:43:24;;;;;;;10.95;1.90;;;;;;;9.67;57.07;102767.03;5027341;28;20034;-43
2023/03/04 05:45:49;;;;;;;9.57;2.05;;;;;;;9.77;56.41;102759.69;5025408;28;20037;-43
2023/03/04 05:48:15;;;;;;;8.10;1.80;;;;;;;9.62;57.10;102760.72;5028347;28;20029;-43
2023/03/04 05:50:40;;;;;;;6.05;1.58;;;;;;;9.68;56.18;102759.28;5024686;28;20060;-41
2023/03/04 05:53:05;;;;;;;12.80;2.17;;;;;;;9.77;56.52;102758.81;5019421;28;20033;-41
2023/03/04 05:55:31;;;;;;;10.18;1.73;;;;;;;9.71;56.28;102751.59;5023139;28;20036;-41
2023/03/04 05:57:57;;;;;;;10.80;1.73;;;;;;;9.92;55.71;102756.03;5019582;28;20068;-41
2023/03/04 06:00:23;;;;;;;12.20;2.33;;;;;;;10.05;55.51;102751.44;5022584;28;20033;-39
2023/03/04 06:02:49;;;;;;;8.85;3.00;;;;;;;10.02;55.72;102756.50;5018998;28;20041;-41
2023/03/04 06:05:14;;;;;;;10.63;2.10;;;;;;;9.54;57.44;102752.53;5022879;28;20036;-41
2023/03/04 06:07:42;;;;;;;6.53;1.70;;;;;;;9.72;57.46;102757.69;5022590;28;20033;-47
2023/03/04 06:10:10;;;;;;;12.00;1.88;;;;;;;9.80;58.05;102755.47;5019895;28;20132;-40
2023/03/04 06:12:35;;;;;;;13.32;2.78;;;;;;;9.66;58.57;102752.22;5022543;28;20076;-42
2023/03/04 06:15:01;;;;;;;8.13;2.00;;;;;;;9.70;58.80;102756.72;5018888;28;20507;-41
2023/03/04 06:17:28;;;;;;;9.63;2.10;;;;;;;9.38;60.25;102757.84;5022450;28;20021;-41
2023/03/04 06:19:53;;;;;;;14.40;2.10;;;;;;;9.25;61.70;102758.94;5018449;28;20030;-41
2023/03/04 06:22:18;;;;;;;7.63;1.92;;;;;;;9.28;61.24;102753.88;5022379;28;20083;-43
2023/03/04 06:24:44;;;;;;;12.60;2.13;;;;;;;9.22;62.10;102750.06;5018942;28;20479;-41
2023/03/04 06:27:09;;;;;;;8.88;1.77;;;;;;;9.27;62.33;102752.09;5023099;28;20060;-44
2023/03/04 06:29:35;;;;;;;8.68;1.80;;;;;;;9.75;60.74;102752.66;5022487;28;20502;-40
2023/03/04 06:32:00;;;;;;;10.35;1.98;;;;;;;9.49;61.58;102755.72;5019203;28;20033;-40
2023/03/04 06:34:25;;;;;;;8.02;1.70;;;;;;;9.37;61.60;102753.44;5023778;28;20495;-41
2023/03/04 06:36:51;;;;;;;10.52;2.25;;;;;;;9.38;61.48;102760.44;5019028;28;20331;-41
2023/03/04 06:39:16;;;;;;;9.80;1.88;;;;;;;9.36;61.50;102756.84;5023092;28;20454;-41
2023/03/04 06:41:41;;;;;;;6.32;1.83;;;;;;;9.45;60.89;102762.53;5019602;28;20041;-40
2023/03/04 06:44:07;;;;;;;9.20;1.88;;;;;;;9.57;60.42;102765.72;5022890;28;20053;-41
2023/03/04 06:46:33;;;;;;;12.35;2.20;;;;;;;9.50;60.31;102771.44;5022956;28;20506;-41
2023/03/04 06:48:59;;;;;;;6.95;1.75;;;;;;;9.50;59.90;102767.94;5018796;28;20049;-43
2023/03/04 06:51:25;;;;;;;8.55;1.45;;;;;;;9.62;58.59;102768.53;5021785;28;20068;-44
2023/03/04 06:53:50;;;;;;;6.43;1.60;;;;;;;9.73;58.41;102772.50;5018531;28;20096;-41
2023/03/04 06:56:16;;;;;;;7.45;1.23;;;;;;;9.86;56.99;102766.16;5022001;28;20557;-41
2023/03/04 06:58:42;;;;;;;7.22;1.33;;;;;;;10.10;56.45;102772.50;5022788;28;20451;-41
2023/03/04 07:01:23;;;;;;;10.45;1.35;;;;;;;10.28;55.70;102775.06;5018083;28;20034;-42
2023/03/04 07:03:50;;;;;;;8.70;1.25;;;;;;;10.26;55.38;102775.00;5018091;28;20455;-42
2023/03/04 07:06:18;;;;;;;6.15;1.25;;;;;;;10.10;55.88;102783.81;5022078;28;20030;-41
2023/03/04 07:08:44;;;;;;;6.13;1.27;;;;;;;10.01;56.18;102777.28;5017938;28;20038;-41
2023/03/04 07:11:10;;;;;;;7.47;1.20;;;;;;;9.91;57.08;102788.09;5022519;28;20499;-43
2023/03/04 07:13:37;;;;;;;6.20;1.45;;;;;;;9.93;57.52;102782.16;5021365;28;20033;-41
2023/03/04 07:16:07;;;;;;;5.80;1.25;;;;;;;9.69;59.26;102788.81;5018220;28;20033;-43
2023/03/04 07:18:33;;;;;;;5.40;1.20;;;;;;;9.87;59.84;102794.91;5022404;28;20080;-41
2023/03/04 07:20:58;;;;;;;5.72;1.20;;;;;;;9.90;60.25;102789.81;5020112;28;20049;-41
2023/03/04 07:23:24;;;;;;;3.30;1.05;;;;;;;10.16;59.79;102797.16;5024235;28;20021;-41
2023/03/04 07:25:49;;;;;;;5.60;1.30;;;;;;;10.00;60.39;102796.38;5019388;28;20137;-41
2023/03/04 07:28:15;;;;;;;5.53;1.23;;;;;;;9.87;61.10;102789.69;5022044;28;20026;-38
2023/03/04 07:30:40;;;;;;;3.38;1.00;;;;;;;10.08;60.80;102787.16;5023221;28;20519;-41
2023/03/04 07:33:06;;;;;;;4.38;1.77;;;;;;;10.02;60.61;102797.31;5019279;28;20438;-41
2023/03/04 07:35:31;;;;;;;7.97;1.38;;;;;;;10.01;60.91;102793.81;5026593;28;20030;-41
2023/03/04 07:37:56;;;;;;;4.07;1.42;;;;;;;9.92;61.37;102800.31;5025987;28;20033;-41
2023/03/04 07:40:22;;;;;;;5.88;1.23;;;;;;;10.12;61.19;102802.13;5028624;28;20048;-40
2023/03/04 07:42:51;;;;;;;6.32;1.30;;;;;;;10.10;61.03;102802.06;5025161;28;20576;-40
2023/03/04 07:45:17;;;;;;;7.57;1.20;;;;;;;9.80;62.42;102811.06;5028547;28;20071;-41
2023/03/04 07:47:42;;;;;;;6.03;1.20;;;;;;;10.32;61.61;102810.88;5020817;28;20037;-40
2023/03/04 07:50:09;;;;;;;10.27;1.40;;;;;;;9.96;63.12;102807.44;5021643;28;20036;-40
2023/03/04 07:52:42;;;;;;;6.25;1.35;;;;;;;10.18;63.23;102812.88;5021361;28;20049;-41
2023/03/04 07:55:09;;;;;;;4.03;0.90;;;;;;;9.99;63.53;102820.63;5017765;28;20037;-41
2023/03/04 07:57:34;;;;;;;7.53;1.20;;;;;;;10.08;63.29;102816.72;5021778;28;20491;-40
2023/03/04 07:59:59;;;;;;;6.82;1.25;;;;;;;10.23;63.64;102823.50;5019512;28;20060;-41
2023/03/04 08:02:25;;;;;;;5.72;0.90;;;;;;;9.77;63.90;102824.81;5022241;28;20040;-41
2023/03/04 08:04:50;;;;;;;2.13;0.70;;;;;;;9.71;64.47;102832.34;5001475;28;20037;-42
2023/03/04 08:07:16;;;;;;;6.45;0.80;;;;;;;10.15;63.18;102813.59;5022718;28;20407;-42
2023/03/04 08:09:41;;;;;;;4.47;0.98;;;;;;;10.00;63.70;102819.81;5018261;28;20037;-40
2023/03/04 08:12:07;;;;;;;3.17;0.73;;;;;;;10.62;62.13;102811.34;5020702;28;20029;-40
2023/03/04 08:14:32;;;;;;;4.75;0.80;;;;;;;10.68;61.74;102816.81;5020926;28;20038;-41
2023/03/04 08:16:58;;;;;;;3.67;0.70;;;;;;;10.83;61.10;102809.69;5017458;28;20033;-40
2023/03/04 08:19:23;;;;;;;3.10;0.70;;;;;;;10.90;60.14;102803.91;5021176;28;20037;-41
2023/03/04 08:21:49;;;;;;;6.47;0.90;;;;;;;10.39;61.16;102823.38;5017186;28;20044;-41
2023/03/04 08:24:14;;;;;;;2.75;0.57;;;;;;;10.33;61.82;102818.78;5020725;28;20040;-42
2023/03/04 08:26:45;;;;;;;4.55;0.85;;;;;;;10.16;62.08;102819.69;5020920;28;20025;-42
2023/03/04 08:29:14;;;;;;;2.67;0.95;;;;;;;10.50;61.41;102822.13;5017282;28;20061;-42
2023/03/04 08:31:40;;;;;;;2.50;0.70;;;;;;;11.14;59.67;102812.78;5019809;28;20037;-52
2023/03/04 08:34:07;;;;;;;6.32;0.80;;;;;;;11.27;60.18;102814.16;5018698;28;20033;-41
2023/03/04 08:36:33;;;;;;;3.30;0.80;;;;;;;11.17;61.16;102817.22;5026483;28;20040;-39
2023/03/04 08:38:58;;;;;;;4.43;0.73;;;;;;;11.09;62.61;102816.91;5023898;28;20395;-40
2023/03/04 08:41:26;;;;;;;3.63;0.80;;;;;;;9.75;68.44;102834.28;5028226;28;20518;-43
2023/03/04 08:43:51;;;;;;;3.33;0.73;;;;;;;9.72;68.97;102820.22;5026493;28;20442;-39
2023/03/04 08:46:17;;;;;;;2.28;0.68;;;;;;;10.20;68.19;102825.97;5031264;28;20041;-42
2023/03/04 08:48:42;;;;;;;3.72;0.70;;;;;;;9.88;68.58;102821.84;5027083;28;20041;-40
2023/03/04 08:51:10;;;;;;;2.75;0.60;;;;;;;9.45;69.69;102824.09;5029381;28;20030;-42
2023/03/04 08:53:36;;;;;;;4.25;0.63;;;;;;;9.67;69.54;102827.81;5029091;28;20133;-40
2023/03/04 08:56:02;;;;;;;1.75;0.60;;;;;;;10.03;69.20;102822.53;5007648;28;20049;-40
2023/03/04 08:58:27;;;;;;;3.25;0.90;;;;;;;10.05;69.27;102818.31;5026962;28;20403;-40
2023/03/04 09:00:53;;;;;;;2.72;0.70;;;;;;;10.04;68.98;102808.69;5023134;28;20044;-40
2023/03/04 09:03:19;;;;;;;4.68;0.80;;;;;;;10.72;67.30;102816.16;5022622;28;20120;-40
2023/03/04 09:05:45;;;;;;;3.38;0.73;;;;;;;11.05;66.08;102807.16;5025404;28;20037;-43
2023/03/04 09:08:11;;;;;;;5.60;1.13;;;;;;;10.96;65.42;102805.06;5030932;28;20036;-39
2023/03/04 09:10:37;;;;;;;5.35;1.30;;;;;;;10.64;67.10;102812.31;5029187;28;20038;-42
2023/03/04 09:13:02;;;;;;;6.03;1.10;;;;;;;10.80;66.54;102809.53;5023511;28;20045;-41
2023/03/04 09:15:27;;;;;;;2.60;0.85;;;;;;;11.14;65.25;102804.03;5026268;28;20025;-43
2023/03/04 09:17:53;;;;;;;4.70;1.05;;;;;;;11.01;65.93;102801.75;5022532;28;20053;-41
2023/03/04 09:20:19;;;;;;;4.88;0.80;;;;;;;11.13;65.01;102797.03;5025407;28;20040;-42
2023/03/04 09:22:45;;;;;;;7.28;1.10;;;;;;;11.50;64.30;102796.81;5022204;28;20125;-40
2023/03/04 09:25:14;;;;;;;5.10;0.77;;;;;;;10.97;64.53;102801.63;5024456;28;20120;-40
2023/03/04 09:27:39;;;;;;;4.07;0.70;;;;;;;11.77;62.13;102798.81;5024029;28;20454;-41
2023/03/04 09:30:05;;;;;;;3.95;0.82;;;;;;;11.61;62.98;102803.34;5021018;28;20091;-40
2023/03/04 09:32:31;;;;;;;4.38;0.88;;;;;;;11.56;63.21;102797.06;5024384;28;20388;-40
2023/03/04 09:34:57;;;;;;;2.72;0.90;;;;;;;11.47;62.23;102800.19;5021913;28;20045;-40
2023/03/04 09:37:22;;;;;;;4.10;0.75;;;;;;;11.14;63.79;102801.44;5027725;28;20045;-40
2023/03/04 09:39:49;;;;;;;2.15;0.68;;;;;;;10.89;63.97;102802.13;5024077;28;20034;-40
2023/03/04 09:42:34;;;;;;;5.10;0.82;;;;;;;11.43;62.21;102803.50;5029771;28;20033;-43
2023/03/04 09:45:00;;;;;;;2.85;0.60;;;;;;;11.38;61.91;102797.22;5025211;28;20048;-40
2023/03/04 09:47:28;;;;;;;3.70;0.55;;;;;;;11.45;59.98;102790.53;5024469;28;20438;-40
2023/03/04 09:50:00;;;;;;;4.28;0.77;;;;;;;11.25;60.71;102795.81;5019967;28;20091;-41
2023/03/04 09:53:03;;;;;;;5.00;0.80;;;;;;;10.92;63.43;102797.00;5022547;28;20033;-40
2023/03/04 09:55:39;;;;;;;4.97;0.80;;;;;;;10.89;64.19;102794.28;5022628;28;20120;-42
2023/03/04 09:58:31;;;;;;;5.10;0.90;;;;;;;10.65;64.91;102799.34;5023057;28;20037;-42
2023/03/04 10:01:02;;;;;;;5.43;0.70;;;;;;;11.05;65.02;102793.19;5019469;28;20041;-39
2023/03/04 10:03:47;;;;;;;1.48;0.50;;;;;;;10.72;66.17;102796.19;5023030;28;20391;-40
2023/03/04 10:06:16;;;;;;;2.28;0.70;;;;;;;10.78;67.11;102806.00;5019652;28;20552;-42
2023/03/04 10:09:03;;;;;;;3.50;0.60;;;;;;;10.47;68.03;102812.47;5021348;28;20543;-49
2023/03/04 10:11:33;;;;;;;2.92;0.45;;;;;;;10.67;67.07;102805.53;5020601;28;20503;-40
2023/03/04 10:14:20;;;;;;;2.15;0.57;;;;;;;9.94;70.67;102815.19;5019024;28;20041;-41
2023/03/04 10:16:52;;;;;;;2.13;0.60;;;;;;;10.55;69.58;102810.22;5018210;28;20038;-40
2023/03/04 10:19:21;;;;;;;3.17;0.80;;;;;;;10.28;70.67;102814.19;5022509;28;20053;-40
2023/03/04 10:21:50;;;;;;;3.65;0.85;;;;;;;10.94;68.14;102795.38;5018749;28;20037;-40
2023/03/04 10:24:27;;;;;;;2.95;0.75;;;;;;;10.66;69.79;102795.03;5023073;28;20044;-43
2023/03/04 10:26:56;;;;;;;3.72;0.80;;;;;;;10.79;67.96;102786.91;5018830;28;20339;-41
2023/03/04 10:29:23;;;;;;;4.15;0.75;;;;;;;10.72;67.62;102784.84;5022739;28;20059;-41
2023/03/04 10:31:49;;;;;;;6.30;1.08;;;;;;;10.88;66.65;102793.41;5018203;28;20040;-43
2023/03/04 10:34:16;;;;;;;6.47;0.98;;;;;;;10.84;66.47;102793.22;5022495;28;20037;-41
2023/03/04 10:37:00;;;;;;;3.08;0.80;;;;;;;11.73;63.04;102786.47;5022629;28;20041;-41
2023/03/04 10:39:27;;;;;;;4.97;1.10;;;;;;;11.53;63.51;102795.22;5018428;28;20515;-42
2023/03/04 10:42:03;;;;;;;4.80;0.90;;;;;;;11.55;62.47;102784.81;5019258;28;20064;-41
2023/03/04 10:44:29;;;;;;;5.07;0.90;;;;;;;11.81;61.25;102784.16;5023263;28;20055;-41
2023/03/04 10:46:56;;;;;;;8.27;1.13;;;;;;;12.44;59.57;102780.44;5018892;28;20039;-40
2023/03/04 10:49:24;;;;;;;5.07;1.10;;;;;;;12.60;58.23;102774.94;5022813;28;20036;-41
2023/03/04 10:52:21;;;;;;;5.38;1.15;;;;;;;11.84;60.69;102786.88;5019049;28;20398;-40
2023/03/04 10:54:51;;;;;;;3.67;1.20;;;;;;;11.60;62.41;102786.78;5021605;28;20124;-40
2023/03/04 10:57:23;;;;;;;4.88;1.10;;;;;;;12.88;58.68;102779.38;5025332;28;20427;-41
2023/03/04 10:59:55;;;;;;;5.88;1.10;;;;;;;12.27;60.15;102778.94;5021183;28;20033;-42
2023/03/04 11:02:27;;;;;;;9.27;1.40;;;;;;;12.06;60.48;102779.06;5023950;28;20025;-41
2023/03/04 11:05:05;;;;;;;5.53;1.00;;;;;;;11.74;63.07;102787.38;5019361;28;20033;-40
2023/03/04 11:07:30;;;;;;;3.83;0.70;;;;;;;11.08;65.86;102775.97;5023885;28;20052;-40
2023/03/04 11:10:08;;;;;;;2.72;0.88;;;;;;;10.97;67.50;102775.53;5002173;28;20065;-41
2023/03/04 11:12:34;;;;;;;3.72;0.65;;;;;;;11.11;65.92;102769.97;5023523;28;20059;-40
2023/03/04 11:15:01;;;;;;;2.88;0.60;;;;;;;10.81;66.34;102775.69;5020513;28;20037;-41
2023/03/04 11:17:38;;;;;;;3.10;0.70;;;;;;;10.75;67.63;102782.34;5025006;28;20033;-40
2023/03/04 11:20:45;;;;;;;5.90;0.80;;;;;;;10.67;69.28;102775.94;5021576;28;20045;-40
2023/03/04 11:23:19;;;;;;;3.08;0.90;;;;;;;11.34;66.55;102769.22;5018366;28;20061;-41
2023/03/04 11:25:53;;;;;;;4.80;0.75;;;;;;;11.51;65.17;102764.66;5017620;28;20363;-41